sensor_id;sensor_type;location;lat;lon;timestamp;pressure;altitude;pressure_sealevel;temperature;humidity
12676;BME280;63820;65.654;21.944;2023-05-10T00:00:22;101243.13;;;2.08;100.00
12676;BME280;63820;65.654;21.944;2023-05-10T00:03:07;101232.84;;;2.03;100.00
12676;BME280;63820;65.654;21.944;2023-05-10T00:05:51;101227.72;;;2.11;100.00
12676;BME280;63820;65.654;21.944;2023-05-10T00:08:35;101232.88;;;2.08;100.00
12676;BME280;63820;65.654;21.944;2023-05-10T00:11:19;101239.72;;;2.07;100.00
12676;BME280;63820;65.654;21.944;2023-05-10T00:14:04;101232.84;;;2.11;100.00
12676;BME280;63820;65.654;21.944;2023-05-10T00:16:48;101240.56;;;2.12;100.00
12676;BME280;63820;65.654;21.944;2023-05-10T00:19:32;101237.13;;;2.13;100.00
12676;BME280;63820;65.654;21.944;2023-05-10T00:22:16;101238.00;;;2.14;100.00
12676;BME280;63820;65.654;21.944;2023-05-10T00:25:00;101234.56;;;2.13;100.00
12676;BME280;63820;65.654;21.944;2023-05-10T00:27:44;101238.00;;;2.14;100.00
12676;BME280;63820;65.654;21.944;2023-05-10T00:30:28;101238.00;;;2.12;100.00
12676;BME280;63820;65.654;21.944;2023-05-10T00:33:12;101233.72;;;2.07;100.00
12676;BME280;63820;65.654;21.944;2023-05-10T00:35:56;101237.13;;;2.10;100.00
12676;BME280;63820;65.654;21.944;2023-05-10T00:38:40;101238.00;;;2.14;100.00
12676;BME280;63820;65.654;21.944;2023-05-10T00:41:24;101226.00;;;2.11;100.00
12676;BME280;63820;65.654;21.944;2023-05-10T00:44:08;101242.28;;;2.12;100.00
12676;BME280;63820;65.654;21.944;2023-05-10T00:46:53;101234.56;;;2.12;100.00
12676;BME280;63820;65.654;21.944;2023-05-10T00:49:37;101231.16;;;2.16;100.00
12676;BME280;63820;65.654;21.944;2023-05-10T00:52:22;101235.44;;;2.17;100.00
12676;BME280;63820;65.654;21.944;2023-05-10T00:55:07;101231.16;;;2.14;100.00
12676;BME280;63820;65.654;21.944;2023-05-10T00:57:53;101225.19;;;2.24;100.00
12676;BME280;63820;65.654;21.944;2023-05-10T01:00:39;101221.81;;;2.33;100.00
12676;BME280;63820;65.654;21.944;2023-05-10T01:03:25;101229.50;;;2.33;100.00
12676;BME280;63820;65.654;21.944;2023-05-10T01:06:10;101238.06;;;2.35;100.00
12676;BME280;63820;65.654;21.944;2023-05-10T01:08:55;101234.66;;;2.41;100.00
12676;BME280;63820;65.654;21.944;2023-05-10T01:11:40;101241.50;;;2.39;100.00
12676;BME280;63820;65.654;21.944;2023-05-10T01:14:24;101238.94;;;2.42;100.00
12676;BME280;63820;65.654;21.944;2023-05-10T01:17:10;101225.25;;;2.49;100.00
12676;BME280;63820;65.654;21.944;2023-05-10T01:19:56;101234.69;;;2.48;100.00
12676;BME280;63820;65.654;21.944;2023-05-10T01:26:12;101227.81;;;2.47;100.00
12676;BME280;63820;65.654;21.944;2023-05-10T01:29:19;101230.41;;;2.49;100.00
12676;BME280;63820;65.654;21.944;2023-05-10T01:35:03;101231.22;;;2.40;100.00
12676;BME280;63820;65.654;21.944;2023-05-10T01:38:02;101222.69;;;2.41;100.00
12676;BME280;63820;65.654;21.944;2023-05-10T01:41:05;101217.53;;;2.44;100.00
12676;BME280;63820;65.654;21.944;2023-05-10T01:47:10;101226.13;;;2.52;100.00
12676;BME280;63820;65.654;21.944;2023-05-10T01:49:56;101224.41;;;2.57;100.00
12676;BME280;63820;65.654;21.944;2023-05-10T01:52:45;101227.84;;;2.62;100.00
12676;BME280;63820;65.654;21.944;2023-05-10T01:55:35;101227.84;;;2.62;100.00
12676;BME280;63820;65.654;21.944;2023-05-10T01:58:30;101233.84;;;2.65;100.00
12676;BME280;63820;65.654;21.944;2023-05-10T02:01:16;101226.16;;;2.65;100.00
12676;BME280;63820;65.654;21.944;2023-05-10T02:04:02;101223.59;;;2.69;100.00
12676;BME280;63820;65.654;21.944;2023-05-10T02:06:49;101224.44;;;2.73;100.00
12676;BME280;63820;65.654;21.944;2023-05-10T02:09:36;101226.16;;;2.77;100.00
12676;BME280;63820;65.654;21.944;2023-05-10T02:12:22;101221.88;;;2.76;100.00
12676;BME280;63820;65.654;21.944;2023-05-10T02:15:08;101219.31;;;2.77;100.00
12676;BME280;63820;65.654;21.944;2023-05-10T02:17:55;101220.16;;;2.84;100.00
12676;BME280;63820;65.654;21.944;2023-05-10T02:20:40;101228.72;;;2.84;100.00
12676;BME280;63820;65.654;21.944;2023-05-10T02:23:25;101233.00;;;2.78;100.00
12676;BME280;63820;65.654;21.944;2023-05-10T02:26:11;101217.59;;;2.81;100.00
12676;BME280;63820;65.654;21.944;2023-05-10T02:28:58;101215.88;;;2.87;100.00
12676;BME280;63820;65.654;21.944;2023-05-10T02:31:43;101232.16;;;2.97;100.00
12676;BME280;63820;65.654;21.944;2023-05-10T02:34:28;101236.44;;;2.97;100.00
12676;BME280;63820;65.654;21.944;2023-05-10T02:37:14;101224.44;;;2.91;100.00
12676;BME280;63820;65.654;21.944;2023-05-10T02:39:59;101215.88;;;2.93;100.00
12676;BME280;63820;65.654;21.944;2023-05-10T02:42:45;101213.31;;;2.97;100.00
12676;BME280;63820;65.654;21.944;2023-05-10T02:45:32;101209.03;;;2.88;100.00
12676;BME280;63820;65.654;21.944;2023-05-10T02:48:17;101221.03;;;2.95;100.00
12676;BME280;63820;65.654;21.944;2023-05-10T02:51:05;101215.03;;;2.96;100.00
12676;BME280;63820;65.654;21.944;2023-05-10T02:53:53;101215.88;;;3.04;100.00
12676;BME280;63820;65.654;21.944;2023-05-10T02:56:42;101221.88;;;3.09;100.00
12676;BME280;63820;65.654;21.944;2023-05-10T02:59:30;101226.16;;;3.12;100.00
12676;BME280;63820;65.654;21.944;2023-05-10T03:02:16;101213.28;;;3.21;100.00
12676;BME280;63820;65.654;21.944;2023-05-10T03:05:00;101218.41;;;3.27;100.00
12676;BME280;63820;65.654;21.944;2023-05-10T03:07:45;101211.53;;;3.40;100.00
12676;BME280;63820;65.654;21.944;2023-05-10T03:10:30;101214.09;;;3.46;100.00
12676;BME280;63820;65.654;21.944;2023-05-10T03:13:16;101214.94;;;3.46;100.00
12676;BME280;63820;65.654;21.944;2023-05-10T03:16:14;101209.78;;;3.55;100.00
12676;BME280;63820;65.654;21.944;2023-05-10T03:19:16;101211.47;;;3.61;100.00
12676;BME280;63820;65.654;21.944;2023-05-10T03:22:05;101202.88;;;3.68;100.00
12676;BME280;63820;65.654;21.944;2023-05-10T03:24:55;101208.00;;;3.79;100.00
12676;BME280;63820;65.654;21.944;2023-05-10T03:27:43;101210.50;;;3.92;100.00
12676;BME280;63820;65.654;21.944;2023-05-10T03:30:28;101207.91;;;4.02;100.00
12676;BME280;63820;65.654;21.944;2023-05-10T03:33:13;101215.59;;;4.05;100.00
12676;BME280;63820;65.654;21.944;2023-05-10T03:35:58;101218.19;;;4.00;100.00
12676;BME280;63820;65.654;21.944;2023-05-10T03:38:42;101217.34;;;4.00;100.00
12676;BME280;63820;65.654;21.944;2023-05-10T03:41:25;101220.88;;;3.74;100.00
12676;BME280;63820;65.654;21.944;2023-05-10T03:44:10;101225.09;;;3.95;100.00
12676;BME280;63820;65.654;21.944;2023-05-10T03:46:54;101235.31;;;4.15;100.00
12676;BME280;63820;65.654;21.944;2023-05-10T03:49:39;101222.31;;;4.33;100.00
12676;BME280;63820;65.654;21.944;2023-05-10T03:52:23;101227.38;;;4.48;100.00
12676;BME280;63820;65.654;21.944;2023-05-10T03:55:07;101228.19;;;4.55;100.00
12676;BME280;63820;65.654;21.944;2023-05-10T03:57:51;101235.03;;;4.57;100.00
12676;BME280;63820;65.654;21.944;2023-05-10T04:00:37;101229.97;;;4.45;100.00
12676;BME280;63820;65.654;21.944;2023-05-10T04:03:27;101232.44;;;4.59;100.00
12676;BME280;63820;65.654;21.944;2023-05-10T04:06:11;101224.81;;;4.42;100.00
12676;BME280;63820;65.654;21.944;2023-05-10T04:08:55;101229.09;;;4.46;100.00
12676;BME280;63820;65.654;21.944;2023-05-10T04:11:39;101230.81;;;4.47;100.00
12676;BME280;63820;65.654;21.944;2023-05-10T04:14:23;101225.69;;;4.43;100.00
12676;BME280;63820;65.654;21.944;2023-05-10T04:17:07;101229.06;;;4.52;100.00
12676;BME280;63820;65.654;21.944;2023-05-10T04:19:52;101216.91;;;4.70;100.00
12676;BME280;63820;65.654;21.944;2023-05-10T04:22:38;101217.72;;;4.78;100.00
12676;BME280;63820;65.654;21.944;2023-05-10T04:25:22;101219.28;;;4.97;100.00
12676;BME280;63820;65.654;21.944;2023-05-10T04:28:06;101225.31;;;4.95;100.00
12676;BME280;63820;65.654;21.944;2023-05-10T04:30:50;101243.38;;;4.93;100.00
12676;BME280;63820;65.654;21.944;2023-05-10T04:33:34;101245.25;;;4.70;100.00
12676;BME280;63820;65.654;21.944;2023-05-10T04:36:19;101240.97;;;4.69;100.00
12676;BME280;63820;65.654;21.944;2023-05-10T04:39:03;101239.19;;;4.78;100.00
12676;BME280;63820;65.654;21.944;2023-05-10T04:41:48;101239.88;;;5.00;100.00
12676;BME280;63820;65.654;21.944;2023-05-10T04:44:32;101245.91;;;5.01;100.00
12676;BME280;63820;65.654;21.944;2023-05-10T04:47:16;101236.50;;;4.93;100.00
12676;BME280;63820;65.654;21.944;2023-05-10T04:50:00;101243.50;;;4.76;100.00
12676;BME280;63820;65.654;21.944;2023-05-10T04:52:44;101246.78;;;4.97;100.00
12676;BME280;63820;65.654;21.944;2023-05-10T04:55:29;101240.72;;;5.02;100.00
12676;BME280;63820;65.654;21.944;2023-05-10T04:58:13;101238.97;;;5.09;100.00
12676;BME280;63820;65.654;21.944;2023-05-10T05:01:04;101229.31;;;5.28;100.00
12676;BME280;63820;65.654;21.944;2023-05-10T05:03:48;101224.06;;;5.35;100.00
12676;BME280;63820;65.654;21.944;2023-05-10T05:06:33;101235.91;;;5.54;100.00
12676;BME280;63820;65.654;21.944;2023-05-10T05:09:17;101227.94;;;5.76;100.00
12676;BME280;63820;65.654;21.944;2023-05-10T05:12:01;101230.44;;;5.83;100.00
12676;BME280;63820;65.654;21.944;2023-05-10T05:14:45;101227.72;;;5.99;100.00
12676;BME280;63820;65.654;21.944;2023-05-10T05:17:32;101223.50;;;5.90;100.00
12676;BME280;63820;65.654;21.944;2023-05-10T05:20:16;101234.69;;;5.90;100.00
12676;BME280;63820;65.654;21.944;2023-05-10T05:23:01;101234.47;;;6.09;100.00
12676;BME280;63820;65.654;21.944;2023-05-10T05:25:45;101232.75;;;6.08;100.00
12676;BME280;63820;65.654;21.944;2023-05-10T05:28:30;101236.06;;;6.19;100.00
12676;BME280;63820;65.654;21.944;2023-05-10T05:31:16;101243.59;;;6.33;100.00
12676;BME280;63820;65.654;21.944;2023-05-10T05:34:01;101240.13;;;6.35;100.00
12676;BME280;63820;65.654;21.944;2023-05-10T05:36:45;101244.34;;;6.41;100.00
12676;BME280;63820;65.654;21.944;2023-05-10T05:39:30;101245.16;;;6.46;100.00
12676;BME280;63820;65.654;21.944;2023-05-10T05:42:14;101241.41;;;6.67;100.00
12676;BME280;63820;65.654;21.944;2023-05-10T05:44:59;101246.34;;;6.82;100.00
12676;BME280;63820;65.654;21.944;2023-05-10T05:47:43;101241.16;;;6.83;100.00
12676;BME280;63820;65.654;21.944;2023-05-10T05:50:28;101237.59;;;6.91;100.00
12676;BME280;63820;65.654;21.944;2023-05-10T05:53:12;101241.66;;;7.05;100.00
12676;BME280;63820;65.654;21.944;2023-05-10T05:55:57;101235.69;;;7.02;100.00
12676;BME280;63820;65.654;21.944;2023-05-10T05:58:42;101236.50;;;7.05;100.00
12676;BME280;63820;65.654;21.944;2023-05-10T06:01:26;101230.88;;;7.30;100.00
12676;BME280;63820;65.654;21.944;2023-05-10T06:04:10;101231.47;;;7.44;100.00
12676;BME280;63820;65.654;21.944;2023-05-10T06:06:54;101226.72;;;7.67;100.00
12676;BME280;63820;65.654;21.944;2023-05-10T06:09:38;101226.31;;;7.88;100.00
12676;BME280;63820;65.654;21.944;2023-05-10T06:12:21;101232.63;;;8.17;100.00
12676;BME280;63820;65.654;21.944;2023-05-10T06:15:06;101223.03;;;8.22;100.00
12676;BME280;63820;65.654;21.944;2023-05-10T06:17:50;101211.31;;;8.44;100.00
12676;BME280;63820;65.654;21.944;2023-05-10T06:20:34;101216.03;;;8.64;100.00
12676;BME280;63820;65.654;21.944;2023-05-10T06:23:18;101214.84;;;8.77;100.00
12676;BME280;63820;65.654;21.944;2023-05-10T06:26:02;101214.97;;;8.34;100.00
12676;BME280;63820;65.654;21.944;2023-05-10T06:28:47;101222.16;;;8.97;100.00
12676;BME280;63820;65.654;21.944;2023-05-10T06:31:31;101219.44;;;9.36;100.00
12676;BME280;63820;65.654;21.944;2023-05-10T06:34:14;101219.09;;;9.48;100.00
12676;BME280;63820;65.654;21.944;2023-05-10T06:36:59;101221.38;;;9.91;100.00
12676;BME280;63820;65.654;21.944;2023-05-10T06:39:43;101227.06;;;10.04;100.00
12676;BME280;63820;65.654;21.944;2023-05-10T06:42:27;101222.00;;;10.30;100.00
12676;BME280;63820;65.654;21.944;2023-05-10T06:45:12;101215.13;;;11.08;100.00
12676;BME280;63820;65.654;21.944;2023-05-10T06:47:57;101220.16;;;11.39;100.00
12676;BME280;63820;65.654;21.944;2023-05-10T06:50:40;101222.88;;;12.75;100.00
12676;BME280;63820;65.654;21.944;2023-05-10T06:53:25;101226.38;;;14.54;100.00
12676;BME280;63820;65.654;21.944;2023-05-10T06:56:09;101223.81;;;15.23;98.43
12676;BME280;63820;65.654;21.944;2023-05-10T06:58:53;101217.13;;;16.79;83.90
12676;BME280;63820;65.654;21.944;2023-05-10T07:01:37;101217.50;;;18.59;71.87
12676;BME280;63820;65.654;21.944;2023-05-10T07:04:21;101217.88;;;19.96;64.79
12676;BME280;63820;65.654;21.944;2023-05-10T07:07:05;101216.13;;;21.62;57.18
12676;BME280;63820;65.654;21.944;2023-05-10T07:09:49;101221.78;;;21.46;54.60
12676;BME280;63820;65.654;21.944;2023-05-10T07:12:34;101218.41;;;21.44;52.87
12676;BME280;63820;65.654;21.944;2023-05-10T07:15:18;101225.75;;;21.17;52.94
12676;BME280;63820;65.654;21.944;2023-05-10T07:18:03;101227.78;;;21.48;52.13
12676;BME280;63820;65.654;21.944;2023-05-10T07:20:49;101221.97;;;20.62;51.37
12676;BME280;63820;65.654;21.944;2023-05-10T07:23:33;101224.22;;;20.06;52.50
12676;BME280;63820;65.654;21.944;2023-05-10T07:26:18;101219.22;;;20.14;52.47
12676;BME280;63820;65.654;21.944;2023-05-10T07:29:03;101217.28;;;20.29;51.51
12676;BME280;63820;65.654;21.944;2023-05-10T07:31:47;101214.53;;;20.31;53.87
12676;BME280;63820;65.654;21.944;2023-05-10T07:34:31;101212.91;;;20.04;51.97
12676;BME280;63820;65.654;21.944;2023-05-10T07:37:16;101216.31;;;20.43;52.36
12676;BME280;63820;65.654;21.944;2023-05-10T07:40:00;101211.47;;;18.84;53.88
12676;BME280;63820;65.654;21.944;2023-05-10T07:42:45;101203.72;;;19.21;54.96
12676;BME280;63820;65.654;21.944;2023-05-10T07:45:29;101214.28;;;21.29;49.86
12676;BME280;63820;65.654;21.944;2023-05-10T07:48:13;101228.53;;;22.17;46.91
12676;BME280;63820;65.654;21.944;2023-05-10T07:50:57;101220.75;;;23.12;44.21
12676;BME280;63820;65.654;21.944;2023-05-10T07:53:41;101228.66;;;23.23;44.86
12676;BME280;63820;65.654;21.944;2023-05-10T07:56:28;101216.00;;;25.53;40.94
12676;BME280;63820;65.654;21.944;2023-05-10T07:59:17;101222.97;;;26.56;36.69
12676;BME280;63820;65.654;21.944;2023-05-10T08:02:01;101215.81;;;27.35;35.56
12676;BME280;63820;65.654;21.944;2023-05-10T08:04:45;101228.75;;;29.56;33.30
12676;BME280;63820;65.654;21.944;2023-05-10T08:07:29;101222.63;;;29.78;31.35
12676;BME280;63820;65.654;21.944;2023-05-10T08:10:13;101223.72;;;28.13;31.90
12676;BME280;63820;65.654;21.944;2023-05-10T08:12:58;101225.97;;;29.09;32.71
12676;BME280;63820;65.654;21.944;2023-05-10T08:15:46;101218.59;;;29.11;30.26
12676;BME280;63820;65.654;21.944;2023-05-10T08:18:31;101209.34;;;25.20;34.89
12676;BME280;63820;65.654;21.944;2023-05-10T08:21:15;101206.81;;;25.28;35.67
12676;BME280;63820;65.654;21.944;2023-05-10T08:23:59;101209.06;;;25.23;34.76
12676;BME280;63820;65.654;21.944;2023-05-10T08:26:44;101219.25;;;22.66;38.92
12676;BME280;63820;65.654;21.944;2023-05-10T08:29:28;101207.06;;;23.79;37.30
12676;BME280;63820;65.654;21.944;2023-05-10T08:32:12;101208.41;;;24.63;35.72
12676;BME280;63820;65.654;21.944;2023-05-10T08:34:56;101200.66;;;22.77;39.21
12676;BME280;63820;65.654;21.944;2023-05-10T08:37:41;101202.69;;;23.68;37.31
12676;BME280;63820;65.654;21.944;2023-05-10T08:40:26;101210.34;;;23.62;37.62
12676;BME280;63820;65.654;21.944;2023-05-10T08:43:12;101195.75;;;21.96;39.97
12676;BME280;63820;65.654;21.944;2023-05-10T08:46:00;101191.16;;;21.31;40.90
12676;BME280;63820;65.654;21.944;2023-05-10T08:48:49;101194.56;;;20.27;43.63
12676;BME280;63820;65.654;21.944;2023-05-10T08:51:36;101197.47;;;21.64;40.58
12676;BME280;63820;65.654;21.944;2023-05-10T08:54:23;101203.88;;;19.70;43.26
12676;BME280;63820;65.654;21.944;2023-05-10T08:57:07;101201.50;;;19.91;44.06
12676;BME280;63820;65.654;21.944;2023-05-10T08:59:52;101205.41;;;20.71;41.97
12676;BME280;63820;65.654;21.944;2023-05-10T09:02:37;101201.75;;;22.32;40.67
12676;BME280;63820;65.654;21.944;2023-05-10T09:05:21;101200.28;;;23.03;37.95
12676;BME280;63820;65.654;21.944;2023-05-10T09:08:06;101190.72;;;21.82;39.13
12676;BME280;63820;65.654;21.944;2023-05-10T09:10:50;101205.78;;;22.04;38.78
12676;BME280;63820;65.654;21.944;2023-05-10T09:13:35;101206.13;;;20.73;40.99
12676;BME280;63820;65.654;21.944;2023-05-10T09:16:20;101195.06;;;20.32;41.90
12676;BME280;63820;65.654;21.944;2023-05-10T09:19:05;101199.63;;;19.42;43.64
12676;BME280;63820;65.654;21.944;2023-05-10T09:21:50;101198.59;;;19.70;43.45
12676;BME280;63820;65.654;21.944;2023-05-10T09:24:34;101208.16;;;21.96;39.19
12676;BME280;63820;65.654;21.944;2023-05-10T09:27:26;101202.31;;;20.17;42.49
12676;BME280;63820;65.654;21.944;2023-05-10T09:30:15;101199.22;;;19.48;43.26
12676;BME280;63820;65.654;21.944;2023-05-10T09:33:00;101204.66;;;19.96;42.15
12676;BME280;63820;65.654;21.944;2023-05-10T09:35:44;101200.25;;;19.33;44.18
12676;BME280;63820;65.654;21.944;2023-05-10T09:38:45;101196.84;;;19.06;44.31
12676;BME280;63820;65.654;21.944;2023-05-10T09:41:29;101197.94;;;19.79;43.64
12676;BME280;63820;65.654;21.944;2023-05-10T09:44:17;101197.09;;;18.49;45.21
12676;BME280;63820;65.654;21.944;2023-05-10T09:47:02;101190.16;;;18.87;45.10
12676;BME280;63820;65.654;21.944;2023-05-10T09:49:50;101193.06;;;19.86;42.98
12676;BME280;63820;65.654;21.944;2023-05-10T09:52:52;101191.22;;;20.48;42.36
12676;BME280;63820;65.654;21.944;2023-05-10T09:55:41;101187.81;;;21.96;39.81
12676;BME280;63820;65.654;21.944;2023-05-10T09:58:25;101193.41;;;22.47;38.62
12676;BME280;63820;65.654;21.944;2023-05-10T10:01:11;101183.69;;;23.52;37.31
12676;BME280;63820;65.654;21.944;2023-05-10T10:03:56;101192.84;;;23.99;36.34
12676;BME280;63820;65.654;21.944;2023-05-10T10:06:41;101188.81;;;24.14;35.76
12676;BME280;63820;65.654;21.944;2023-05-10T10:09:26;101192.41;;;25.12;34.37
12676;BME280;63820;65.654;21.944;2023-05-10T10:12:10;101191.66;;;25.38;34.14
12676;BME280;63820;65.654;21.944;2023-05-10T10:14:55;101181.66;;;22.61;37.74
12676;BME280;63820;65.654;21.944;2023-05-10T10:17:39;101185.59;;;20.77;39.78
12676;BME280;63820;65.654;21.944;2023-05-10T10:20:26;101191.06;;;18.47;44.16
12676;BME280;63820;65.654;21.944;2023-05-10T10:23:10;101182.72;;;19.19;43.99
12676;BME280;63820;65.654;21.944;2023-05-10T10:25:54;101172.22;;;18.53;44.99
12676;BME280;63820;65.654;21.944;2023-05-10T10:31:41;101175.22;;;17.64;47.94
12676;BME280;63820;65.654;21.944;2023-05-10T10:34:29;101168.59;;;17.15;48.47
12676;BME280;63820;65.654;21.944;2023-05-10T10:37:15;101181.28;;;17.22;49.11
12676;BME280;63820;65.654;21.944;2023-05-10T10:40:00;101179.72;;;17.77;48.15
12676;BME280;63820;65.654;21.944;2023-05-10T10:42:44;101179.34;;;17.97;47.43
12676;BME280;63820;65.654;21.944;2023-05-10T10:45:29;101183.56;;;18.00;47.37
12676;BME280;63820;65.654;21.944;2023-05-10T10:48:21;101178.97;;;17.60;47.78
12676;BME280;63820;65.654;21.944;2023-05-10T10:51:06;101177.25;;;17.31;48.05
12676;BME280;63820;65.654;21.944;2023-05-10T10:53:50;101177.25;;;18.02;47.83
12676;BME280;63820;65.654;21.944;2023-05-10T10:56:34;101176.34;;;18.30;47.55
12676;BME280;63820;65.654;21.944;2023-05-10T10:59:26;101169.28;;;18.57;46.42
12676;BME280;63820;65.654;21.944;2023-05-10T11:02:46;101173.47;;;18.47;46.71
12676;BME280;63820;65.654;21.944;2023-05-10T11:08:27;101171.16;;;18.82;45.91
12676;BME280;63820;65.654;21.944;2023-05-10T11:11:14;101164.38;;;19.18;45.21
12676;BME280;63820;65.654;21.944;2023-05-10T11:14:03;101164.53;;;18.09;47.53
12676;BME280;63820;65.654;21.944;2023-05-10T11:16:48;101151.88;;;18.28;47.46
12676;BME280;63820;65.654;21.944;2023-05-10T11:19:32;101161.06;;;18.08;48.01
12676;BME280;63820;65.654;21.944;2023-05-10T11:22:16;101154.91;;;17.81;48.83
12676;BME280;63820;65.654;21.944;2023-05-10T11:25:02;101157.53;;;17.81;48.77
12676;BME280;63820;65.654;21.944;2023-05-10T11:27:49;101156.50;;;16.05;51.91
12676;BME280;63820;65.654;21.944;2023-05-10T11:30:33;101152.47;;;16.61;51.67
12676;BME280;63820;65.654;21.944;2023-05-10T11:33:18;101147.78;;;16.05;51.60
12676;BME280;63820;65.654;21.944;2023-05-10T11:36:03;101151.16;;;15.91;52.90
12676;BME280;63820;65.654;21.944;2023-05-10T11:38:48;101138.59;;;15.80;53.94
12676;BME280;63820;65.654;21.944;2023-05-10T11:41:32;101139.72;;;16.69;52.20
12676;BME280;63820;65.654;21.944;2023-05-10T11:44:17;101146.59;;;16.72;51.13
12676;BME280;63820;65.654;21.944;2023-05-10T11:47:02;101145.31;;;17.23;50.51
12676;BME280;63820;65.654;21.944;2023-05-10T11:49:48;101139.50;;;17.32;49.67
12676;BME280;63820;65.654;21.944;2023-05-10T11:52:36;101132.69;;;17.85;48.33
12676;BME280;63820;65.654;21.944;2023-05-10T11:55:23;101135.72;;;17.79;48.92
12676;BME280;63820;65.654;21.944;2023-05-10T11:58:10;101131.59;;;17.75;48.50
12676;BME280;63820;65.654;21.944;2023-05-10T12:00:54;101129.13;;;17.86;48.19
12676;BME280;63820;65.654;21.944;2023-05-10T12:03:39;101135.63;;;18.48;47.25
12676;BME280;63820;65.654;21.944;2023-05-10T12:06:26;101123.16;;;18.77;45.93
12676;BME280;63820;65.654;21.944;2023-05-10T12:09:11;101127.88;;;18.33;47.23
12676;BME280;63820;65.654;21.944;2023-05-10T12:11:56;101127.28;;;17.45;48.32
12676;BME280;63820;65.654;21.944;2023-05-10T12:14:43;101125.06;;;16.95;49.88
12676;BME280;63820;65.654;21.944;2023-05-10T12:17:28;101129.00;;;16.88;49.59
12676;BME280;63820;65.654;21.944;2023-05-10T12:20:21;101118.25;;;16.47;50.84
12676;BME280;63820;65.654;21.944;2023-05-10T12:23:08;101119.66;;;17.55;48.89
12676;BME280;63820;65.654;21.944;2023-05-10T12:25:53;101108.84;;;18.69;46.39
12676;BME280;63820;65.654;21.944;2023-05-10T12:28:38;101116.53;;;19.10;45.14
12676;BME280;63820;65.654;21.944;2023-05-10T12:31:23;101111.47;;;18.81;44.98
12676;BME280;63820;65.654;21.944;2023-05-10T12:34:07;101117.19;;;18.48;45.39
12676;BME280;63820;65.654;21.944;2023-05-10T12:36:53;101115.63;;;18.58;45.41
12676;BME280;63820;65.654;21.944;2023-05-10T12:39:42;101115.34;;;18.09;46.37
12676;BME280;63820;65.654;21.944;2023-05-10T12:42:27;101106.59;;;17.53;47.13
12676;BME280;63820;65.654;21.944;2023-05-10T12:45:12;101111.63;;;18.26;45.86
12676;BME280;63820;65.654;21.944;2023-05-10T12:47:56;101108.88;;;18.01;46.02
12676;BME280;63820;65.654;21.944;2023-05-10T12:50:41;101114.91;;;18.29;45.69
12676;BME280;63820;65.654;21.944;2023-05-10T12:53:25;101113.91;;;17.77;46.74
12676;BME280;63820;65.654;21.944;2023-05-10T12:56:09;101116.94;;;18.39;46.57
12676;BME280;63820;65.654;21.944;2023-05-10T12:58:54;101103.97;;;18.75;45.43
12676;BME280;63820;65.654;21.944;2023-05-10T13:01:38;101103.31;;;18.32;45.92
12676;BME280;63820;65.654;21.944;2023-05-10T13:04:22;101098.16;;;18.83;44.89
12676;BME280;63820;65.654;21.944;2023-05-10T13:07:06;101087.75;;;18.42;45.62
12676;BME280;63820;65.654;21.944;2023-05-10T13:09:51;101093.66;;;19.23;44.62
12676;BME280;63820;65.654;21.944;2023-05-10T13:12:35;101097.03;;;19.87;43.03
12676;BME280;63820;65.654;21.944;2023-05-10T13:15:19;101099.75;;;19.49;43.60
12676;BME280;63820;65.654;21.944;2023-05-10T13:18:03;101093.31;;;19.89;43.23
12676;BME280;63820;65.654;21.944;2023-05-10T13:20:47;101084.13;;;19.46;43.34
12676;BME280;63820;65.654;21.944;2023-05-10T13:23:31;101075.91;;;18.61;45.18
12676;BME280;63820;65.654;21.944;2023-05-10T13:26:15;101082.34;;;18.70;45.45
12676;BME280;63820;65.654;21.944;2023-05-10T13:28:59;101078.13;;;18.01;46.42
12676;BME280;63820;65.654;21.944;2023-05-10T13:31:43;101080.84;;;17.44;47.83
12676;BME280;63820;65.654;21.944;2023-05-10T13:34:27;101089.69;;;17.57;47.93
12676;BME280;63820;65.654;21.944;2023-05-10T13:37:12;101068.75;;;17.42;47.83
12676;BME280;63820;65.654;21.944;2023-05-10T13:39:56;101080.31;;;17.68;48.15
12676;BME280;63820;65.654;21.944;2023-05-10T13:42:40;101074.75;;;17.58;48.72
12676;BME280;63820;65.654;21.944;2023-05-10T13:45:24;101071.94;;;17.04;49.21
12676;BME280;63820;65.654;21.944;2023-05-10T13:48:08;101077.09;;;17.06;49.58
12676;BME280;63820;65.654;21.944;2023-05-10T13:50:52;101072.88;;;17.03;49.05
12676;BME280;63820;65.654;21.944;2023-05-10T13:53:36;101067.34;;;17.22;49.32
12676;BME280;63820;65.654;21.944;2023-05-10T13:56:20;101073.16;;;17.13;49.45
12676;BME280;63820;65.654;21.944;2023-05-10T13:59:04;101069.22;;;17.06;49.49
12676;BME280;63820;65.654;21.944;2023-05-10T14:01:48;101072.38;;;16.96;50.00
12676;BME280;63820;65.654;21.944;2023-05-10T14:04:32;101079.91;;;17.45;49.05
12676;BME280;63820;65.654;21.944;2023-05-10T14:07:19;101068.66;;;17.84;48.15
12676;BME280;63820;65.654;21.944;2023-05-10T14:10:03;101066.78;;;17.31;48.86
12676;BME280;63820;65.654;21.944;2023-05-10T14:12:47;101063.28;;;16.88;49.20
12676;BME280;63820;65.654;21.944;2023-05-10T14:15:31;101072.94;;;17.58;48.35
12676;BME280;63820;65.654;21.944;2023-05-10T14:18:15;101063.47;;;17.13;48.66
12676;BME280;63820;65.654;21.944;2023-05-10T14:21:01;101060.38;;;17.21;47.89
12676;BME280;63820;65.654;21.944;2023-05-10T14:23:45;101062.03;;;16.79;48.81
12676;BME280;63820;65.654;21.944;2023-05-10T14:26:29;101060.94;;;16.97;48.88
12676;BME280;63820;65.654;21.944;2023-05-10T14:29:13;101056.25;;;17.17;48.14